Time;durP1;ratioP1;P1;durP2;ratioP2;P2;SDS_P1;SDS_P2;PMS_P1;PMS_P2;Temp;Humidity;BMP_temperature;BMP_pressure;BME280_temperature;BME280_humidity;BME280_pressure;Samples;Min_cycle;Max_cycle;Signal;HPM_P1;HPM_P2
2022/02/06 00:01:12;;;;;;;;;5.25;3.75;;;;;;;;5034809;28;45538;-70
2022/02/06 00:03:38;;;;;;;;;3.50;3.00;;;;;;;;5035064;28;46337;-70
2022/02/06 00:06:03;;;;;;;;;4.00;4.00;;;;;;;;5034554;28;47609;-70
2022/02/06 00:08:28;;;;;;;;;5.00;4.00;;;;;;;;5033946;28;45634;-69
2022/02/06 00:10:54;;;;;;;;;5.00;3.25;;;;;;;;5034248;28;45440;-69
2022/02/06 00:13:19;;;;;;;;;6.25;5.00;;;;;;;;5034743;28;46245;-69
2022/02/06 00:15:44;;;;;;;;;3.50;3.00;;;;;;;;5034330;28;45446;-69
2022/02/06 00:18:09;;;;;;;;;4.00;3.75;;;;;;;;5035014;28;45535;-69
2022/02/06 00:20:45;;;;;;;;;3.50;3.00;;;;;;;;5034140;28;45452;-69
2022/02/06 00:23:12;;;;;;;;;2.50;2.00;;;;;;;;5033672;28;45368;-68
2022/02/06 00:28:47;;;;;;;;;4.00;4.00;;;;;;;;4961430;28;45472;-69
2022/02/06 00:33:47;;;;;;;;;4.75;4.75;;;;;;;;4973183;28;46033;-69
2022/02/06 00:41:26;;;;;;;;;3.25;3.25;;;;;;;;4987053;28;45476;-70
2022/02/06 00:43:52;;;;;;;;;2.50;2.50;;;;;;;;4991564;28;45553;-69
2022/02/06 00:46:20;;;;;;;;;1.00;1.00;;;;;;;;4992035;28;45508;-69
2022/02/06 00:48:51;;;;;;;;;6.25;3.75;;;;;;;;4992419;28;45415;-69
2022/02/06 00:51:26;;;;;;;;;3.00;3.00;;;;;;;;4992351;28;45393;-68
2022/02/06 00:53:52;;;;;;;;;4.75;3.25;;;;;;;;4991509;28;47271;-69
2022/02/06 00:56:18;;;;;;;;;5.50;3.25;;;;;;;;4991681;28;45522;-69
2022/02/06 00:58:43;;;;;;;;;3.75;3.75;;;;;;;;4991839;28;45315;-69
2022/02/06 01:01:08;;;;;;;;;3.00;3.00;;;;;;;;4991976;28;45532;-69
2022/02/06 01:03:33;;;;;;;;;4.00;2.75;;;;;;;;5010157;28;47390;-69
2022/02/06 01:05:59;;;;;;;;;3.25;3.00;;;;;;;;5033913;28;45939;-70
2022/02/06 01:08:24;;;;;;;;;5.75;4.50;;;;;;;;5015814;28;45424;-69
2022/02/06 01:10:49;;;;;;;;;4.00;4.00;;;;;;;;5032639;28;45547;-69
2022/02/06 01:16:03;;;;;;;;;3.75;2.75;;;;;;;;5034299;28;45425;-69
2022/02/06 01:18:35;;;;;;;;;4.00;4.00;;;;;;;;5035352;28;45278;-68
2022/02/06 01:21:07;;;;;;;;;6.25;4.50;;;;;;;;5033792;28;45335;-68
2022/02/06 01:23:59;;;;;;;;;3.25;3.25;;;;;;;;5034149;28;47056;-68
2022/02/06 01:27:10;;;;;;;;;3.75;2.75;;;;;;;;5033247;28;45683;-69
2022/02/06 01:32:07;;;;;;;;;3.75;2.50;;;;;;;;5036268;28;45364;-69
2022/02/06 01:34:45;;;;;;;;;5.75;3.00;;;;;;;;5039349;28;47041;-68
2022/02/06 01:37:29;;;;;;;;;5.00;3.00;;;;;;;;5023487;28;45420;-69
2022/02/06 01:42:43;;;;;;;;;4.75;2.75;;;;;;;;5058218;28;45280;-68
2022/02/06 02:15:28;;;;;;;;;1.00;1.00;;;;;;;;4843002;29;45415;-68
2022/02/06 02:20:44;;;;;;;;;1.00;1.00;;;;;;;;4842909;29;45614;-68
2022/02/06 02:29:15;;;;;;;;;2.00;2.00;;;;;;;;4883741;29;45806;-68
2022/02/06 02:45:27;;;;;;;;;3.25;3.00;;;;;;;;5052099;28;45510;-69
2022/02/06 02:48:00;;;;;;;;;4.25;3.25;;;;;;;;5057625;28;45517;-68
2022/02/06 02:50:26;;;;;;;;;1.50;1.50;;;;;;;;5057613;28;47188;-68
2022/02/06 02:58:29;;;;;;;;;4.00;3.00;;;;;;;;5057956;28;45366;-67
2022/02/06 03:01:00;;;;;;;;;3.00;3.00;;;;;;;;5053833;28;46840;-69
2022/02/06 03:05:53;;;;;;;;;2.75;2.75;;;;;;;;5057821;28;45582;-68
2022/02/06 03:08:20;;;;;;;;;2.00;2.00;;;;;;;;5057778;28;45573;-67
2022/02/06 03:10:45;;;;;;;;;1.75;1.75;;;;;;;;5058919;28;46264;-69
2022/02/06 03:13:14;;;;;;;;;2.25;2.25;;;;;;;;5057739;27;45498;-69
2022/02/06 03:15:45;;;;;;;;;3.00;3.00;;;;;;;;5057030;28;45403;-69
2022/02/06 03:18:22;;;;;;;;;4.25;4.25;;;;;;;;5057091;28;45410;-69
2022/02/06 03:20:48;;;;;;;;;5.50;3.75;;;;;;;;5057373;27;46090;-68
2022/02/06 03:23:14;;;;;;;;;3.00;2.00;;;;;;;;5057346;28;45421;-69
2022/02/06 03:25:55;;;;;;;;;2.00;2.00;;;;;;;;5057520;28;45354;-69
2022/02/06 03:28:21;;;;;;;;;4.50;3.50;;;;;;;;5042943;28;45471;-68
2022/02/06 03:30:47;;;;;;;;;3.25;3.00;;;;;;;;5056518;28;46312;-69
2022/02/06 03:33:12;;;;;;;;;3.50;2.25;;;;;;;;5056867;28;45304;-68
2022/02/06 03:35:37;;;;;;;;;1.50;1.50;;;;;;;;5039639;28;45470;-68
2022/02/06 03:38:03;;;;;;;;;4.00;3.00;;;;;;;;5039160;28;45301;-69
2022/02/06 03:40:34;;;;;;;;;3.00;3.00;;;;;;;;5057165;28;45932;-69
2022/02/06 03:45:42;;;;;;;;;3.00;3.00;;;;;;;;5056523;28;45423;-68
2022/02/06 03:50:48;;;;;;;;;1.00;0.00;;;;;;;;5056812;28;45513;-68
2022/02/06 03:53:15;;;;;;;;;3.75;3.75;;;;;;;;5056788;28;45428;-67
2022/02/06 03:55:40;;;;;;;;;2.00;2.00;;;;;;;;5056687;28;45481;-68
2022/02/06 03:58:05;;;;;;;;;4.00;3.25;;;;;;;;5057458;28;45494;-68
2022/02/06 04:00:31;;;;;;;;;3.00;2.00;;;;;;;;5055202;28;46302;-68
2022/02/06 04:02:56;;;;;;;;;2.00;1.00;;;;;;;;5056433;28;45270;-68
2022/02/06 04:05:21;;;;;;;;;2.00;1.50;;;;;;;;5056542;28;45281;-68
2022/02/06 04:07:47;;;;;;;;;1.75;1.75;;;;;;;;5056374;28;45465;-69
2022/02/06 04:10:15;;;;;;;;;4.00;1.00;;;;;;;;5056687;28;46353;-69
2022/02/06 04:12:42;;;;;;;;;1.00;0.50;;;;;;;;5055756;28;45495;-68
2022/02/06 04:15:14;;;;;;;;;2.00;1.00;;;;;;;;5056303;28;45434;-68
2022/02/06 04:17:50;;;;;;;;;2.25;1.00;;;;;;;;5056361;28;47671;-69
2022/02/06 04:20:15;;;;;;;;;6.25;1.00;;;;;;;;5056684;28;47009;-68
2022/02/06 04:22:40;;;;;;;;;2.00;2.00;;;;;;;;5056745;28;45362;-67
2022/02/06 04:25:06;;;;;;;;;4.50;2.75;;;;;;;;5056943;28;45371;-67
2022/02/06 04:27:31;;;;;;;;;2.00;2.00;;;;;;;;5055855;28;45897;-67
2022/02/06 04:29:56;;;;;;;;;3.25;2.25;;;;;;;;5058102;28;45968;-68
2022/02/06 04:32:22;;;;;;;;;4.75;2.75;;;;;;;;5056324;28;45735;-69
2022/02/06 04:34:49;;;;;;;;;3.00;3.00;;;;;;;;5056733;28;45385;-68
2022/02/06 04:37:32;;;;;;;;;2.25;2.00;;;;;;;;5056740;28;45560;-68
2022/02/06 04:40:18;;;;;;;;;4.00;2.25;;;;;;;;5056255;28;46291;-70
2022/02/06 04:43:05;;;;;;;;;4.75;2.50;;;;;;;;5052773;28;45364;-67
2022/02/06 05:15:01;;;;;;;;;5.00;4.00;;;;;;;;5055724;28;45423;-67
2022/02/06 05:28:46;;;;;;;;;2.00;2.00;;;;;;;;4993583;28;45598;-67
2022/02/06 05:31:16;;;;;;;;;5.50;4.00;;;;;;;;4993962;28;45456;-67
2022/02/06 05:33:41;;;;;;;;;2.50;2.50;;;;;;;;4992746;28;45550;-68
2022/02/06 05:36:11;;;;;;;;;1.75;1.75;;;;;;;;4993280;28;45254;-68
2022/02/06 05:38:36;;;;;;;;;2.75;1.75;;;;;;;;4993158;28;45444;-67
2022/02/06 05:41:03;;;;;;;;;1.75;1.75;;;;;;;;4993180;28;45351;-68
2022/02/06 05:43:28;;;;;;;;;3.00;2.00;;;;;;;;4993024;28;46352;-67
2022/02/06 05:45:54;;;;;;;;;4.25;4.00;;;;;;;;4993489;28;45386;-68
2022/02/06 05:48:19;;;;;;;;;2.25;2.25;;;;;;;;4992676;28;45586;-68
2022/02/06 05:50:44;;;;;;;;;4.25;3.00;;;;;;;;5010588;28;45460;-68
2022/02/06 05:53:11;;;;;;;;;3.00;3.00;;;;;;;;5055491;28;46482;-68
2022/02/06 05:55:36;;;;;;;;;3.75;2.00;;;;;;;;5055512;28;45514;-68
2022/02/06 05:58:01;;;;;;;;;2.50;2.00;;;;;;;;5037281;28;45334;-68
2022/02/06 06:00:27;;;;;;;;;5.00;4.00;;;;;;;;5054710;28;45324;-68
2022/02/06 06:02:52;;;;;;;;;4.00;3.25;;;;;;;;5054917;28;46263;-68
2022/02/06 06:05:19;;;;;;;;;2.00;2.00;;;;;;;;5036856;28;45905;-68
2022/02/06 06:07:44;;;;;;;;;4.00;4.00;;;;;;;;5055097;28;45332;-67
2022/02/06 06:10:10;;;;;;;;;2.00;2.00;;;;;;;;5056777;28;45363;-68
2022/02/06 06:12:36;;;;;;;;;3.50;3.50;;;;;;;;5053818;28;46498;-67
2022/02/06 06:15:01;;;;;;;;;1.25;1.00;;;;;;;;5055043;28;45355;-67
2022/02/06 06:17:26;;;;;;;;;2.50;2.00;;;;;;;;5056385;28;45461;-68
2022/02/06 06:19:54;;;;;;;;;2.25;2.25;;;;;;;;5058598;28;45382;-68
2022/02/06 06:22:20;;;;;;;;;1.00;1.00;;;;;;;;5058219;28;46633;-68
2022/02/06 06:24:51;;;;;;;;;1.50;1.50;;;;;;;;5057205;28;45474;-68
2022/02/06 06:27:16;;;;;;;;;2.00;2.00;;;;;;;;5057066;28;45341;-67
2022/02/06 06:29:41;;;;;;;;;3.00;3.00;;;;;;;;5056590;28;45643;-67
2022/02/06 06:32:07;;;;;;;;;1.00;1.00;;;;;;;;5050487;28;45280;-67
2022/02/06 06:34:32;;;;;;;;;3.50;2.50;;;;;;;;5058225;28;45526;-67
2022/02/06 06:36:57;;;;;;;;;3.00;2.25;;;;;;;;5058418;27;45334;-68
2022/02/06 06:39:34;;;;;;;;;0.00;0.00;;;;;;;;5057339;28;45272;-68
2022/02/06 06:42:00;;;;;;;;;5.50;3.00;;;;;;;;5058081;28;47045;-69
2022/02/06 06:44:25;;;;;;;;;1.00;1.00;;;;;;;;5057754;28;45481;-68
2022/02/06 06:46:50;;;;;;;;;1.50;1.50;;;;;;;;5057996;28;45379;-67
2022/02/06 06:49:15;;;;;;;;;4.00;2.25;;;;;;;;5058182;27;45341;-69
2022/02/06 06:51:40;;;;;;;;;3.00;0.75;;;;;;;;5056958;28;45342;-67
2022/02/06 06:54:12;;;;;;;;;2.00;2.00;;;;;;;;5057254;28;45450;-68
2022/02/06 06:56:45;;;;;;;;;0.25;0.25;;;;;;;;5057765;27;45474;-68
2022/02/06 06:59:26;;;;;;;;;2.50;2.50;;;;;;;;5057720;28;45433;-73
2022/02/06 07:02:04;;;;;;;;;3.00;1.00;;;;;;;;5057549;27;46929;-72
2022/02/06 07:04:30;;;;;;;;;2.75;1.75;;;;;;;;5057725;28;45385;-72
2022/02/06 07:06:55;;;;;;;;;3.00;3.00;;;;;;;;5057528;28;45329;-74
2022/02/06 07:09:20;;;;;;;;;3.25;2.00;;;;;;;;5056385;28;45526;-73
2022/02/06 07:11:45;;;;;;;;;2.00;2.00;;;;;;;;5057076;28;46837;-73
2022/02/06 07:14:10;;;;;;;;;2.25;1.25;;;;;;;;5057497;28;45272;-73
2022/02/06 07:16:36;;;;;;;;;3.00;3.00;;;;;;;;5057709;28;45552;-72
2022/02/06 07:19:01;;;;;;;;;3.25;3.25;;;;;;;;5058747;28;45280;-72
2022/02/06 07:21:27;;;;;;;;;1.75;1.75;;;;;;;;5056850;28;47026;-75
2022/02/06 07:23:52;;;;;;;;;1.25;0.00;;;;;;;;5057052;28;45290;-74
2022/02/06 07:26:19;;;;;;;;;1.00;1.00;;;;;;;;5057258;28;45763;-74
2022/02/06 07:28:48;;;;;;;;;2.75;2.00;;;;;;;;5056206;28;45441;-74
2022/02/06 07:31:13;;;;;;;;;3.50;1.25;;;;;;;;5057185;28;46088;-75
2022/02/06 07:33:39;;;;;;;;;4.00;1.00;;;;;;;;5056177;28;45368;-74
2022/02/06 07:36:04;;;;;;;;;3.00;2.50;;;;;;;;5057280;28;45265;-75
2022/02/06 07:38:29;;;;;;;;;2.50;1.25;;;;;;;;5056614;27;45258;-75
2022/02/06 07:40:54;;;;;;;;;3.25;2.00;;;;;;;;5056326;28;45555;-74
2022/02/06 07:43:19;;;;;;;;;2.25;2.25;;;;;;;;5056931;28;45344;-71
2022/02/06 07:45:45;;;;;;;;;2.00;2.00;;;;;;;;5056297;28;45323;-73
2022/02/06 07:48:12;;;;;;;;;1.75;0.00;;;;;;;;5057246;28;45474;-74
2022/02/06 07:50:37;;;;;;;;;1.50;1.50;;;;;;;;5057055;28;47489;-73
2022/02/06 07:53:03;;;;;;;;;3.00;3.00;;;;;;;;5056204;28;45558;-73
2022/02/06 07:55:28;;;;;;;;;2.50;1.00;;;;;;;;5057047;28;45237;-75
2022/02/06 07:57:54;;;;;;;;;1.75;1.25;;;;;;;;5056999;28;45293;-75
2022/02/06 08:00:19;;;;;;;;;3.50;2.00;;;;;;;;5058232;28;45408;-75
2022/02/06 08:02:44;;;;;;;;;4.50;1.00;;;;;;;;5056887;28;45506;-76
2022/02/06 08:05:10;;;;;;;;;1.25;1.25;;;;;;;;5056596;28;45368;-74
2022/02/06 08:07:36;;;;;;;;;1.25;1.00;;;;;;;;5056205;28;45494;-72
2022/02/06 08:10:02;;;;;;;;;3.25;2.00;;;;;;;;5056471;28;46687;-72
2022/02/06 08:12:34;;;;;;;;;3.00;2.00;;;;;;;;5055483;28;45432;-71
2022/02/06 08:15:02;;;;;;;;;4.25;4.00;;;;;;;;5056292;28;45442;-71
2022/02/06 08:17:31;;;;;;;;;2.00;2.00;;;;;;;;5056548;28;45491;-72
2022/02/06 08:19:58;;;;;;;;;2.00;2.00;;;;;;;;5056339;28;46379;-70
2022/02/06 08:22:23;;;;;;;;;4.75;2.00;;;;;;;;5056059;28;45402;-74
2022/02/06 08:24:50;;;;;;;;;2.25;2.25;;;;;;;;5056229;28;45236;-74
2022/02/06 08:27:15;;;;;;;;;1.50;1.00;;;;;;;;5055823;28;45365;-75
2022/02/06 08:29:44;;;;;;;;;1.00;1.00;;;;;;;;5055932;28;46194;-75
2022/02/06 08:32:09;;;;;;;;;3.00;1.00;;;;;;;;5056565;28;45284;-75
2022/02/06 08:34:35;;;;;;;;;0.00;0.00;;;;;;;;5056554;28;45379;-75
2022/02/06 08:37:02;;;;;;;;;3.50;2.00;;;;;;;;5056325;28;45272;-74
2022/02/06 08:39:28;;;;;;;;;2.75;1.00;;;;;;;;5058467;28;46497;-76
2022/02/06 08:41:53;;;;;;;;;2.00;2.00;;;;;;;;5072155;28;45279;-75
2022/02/06 08:44:20;;;;;;;;;0.25;0.25;;;;;;;;5057222;28;45503;-74
2022/02/06 08:46:46;;;;;;;;;3.75;1.75;;;;;;;;5056126;28;45378;-76
2022/02/06 08:49:11;;;;;;;;;4.50;1.00;;;;;;;;5055734;28;47169;-73
2022/02/06 08:51:36;;;;;;;;;0.75;0.75;;;;;;;;5054556;28;45287;-74
2022/02/06 08:54:01;;;;;;;;;1.00;1.00;;;;;;;;5056062;28;45288;-74
2022/02/06 08:56:28;;;;;;;;;0.25;0.00;;;;;;;;5055586;28;45398;-74
2022/02/06 08:58:53;;;;;;;;;1.25;1.25;;;;;;;;5055392;28;46048;-76
2022/02/06 09:01:18;;;;;;;;;0.25;0.00;;;;;;;;5055498;28;45455;-76
2022/02/06 09:03:43;;;;;;;;;2.00;2.00;;;;;;;;5055134;28;45535;-73
2022/02/06 09:06:11;;;;;;;;;2.75;1.75;;;;;;;;5054996;28;45398;-74
2022/02/06 09:08:37;;;;;;;;;2.00;1.00;;;;;;;;5055246;28;47114;-73
2022/02/06 09:11:02;;;;;;;;;1.00;1.00;;;;;;;;5055080;28;45477;-73
2022/02/06 09:13:28;;;;;;;;;1.00;1.00;;;;;;;;5055423;28;45403;-73
2022/02/06 09:15:53;;;;;;;;;1.00;1.00;;;;;;;;5055412;28;45474;-70
2022/02/06 09:18:18;;;;;;;;;2.00;1.50;;;;;;;;5053863;28;46751;-72
2022/02/06 09:20:43;;;;;;;;;4.00;2.25;;;;;;;;5054780;28;45406;-73
2022/02/06 09:23:08;;;;;;;;;1.25;1.00;;;;;;;;5055524;28;45475;-73
2022/02/06 09:25:34;;;;;;;;;1.75;1.75;;;;;;;;5055795;28;45440;-71
2022/02/06 09:28:00;;;;;;;;;3.00;1.75;;;;;;;;5055066;28;46399;-70
2022/02/06 09:30:28;;;;;;;;;2.25;1.25;;;;;;;;5054279;28;45426;-70
2022/02/06 09:35:18;;;;;;;;;1.40;1.40;;;;;;;;5055079;28;45402;-70
2022/02/06 09:37:43;;;;;;;;;2.50;1.00;;;;;;;;5054987;28;46128;-71
2022/02/06 09:40:12;;;;;;;;;2.75;1.75;;;;;;;;5054852;28;45473;-69
2022/02/06 09:42:38;;;;;;;;;1.75;1.75;;;;;;;;5050103;28;45265;-70
2022/02/06 09:45:03;;;;;;;;;3.50;2.00;;;;;;;;5054375;28;45618;-70
2022/02/06 09:47:30;;;;;;;;;1.75;1.00;;;;;;;;5055582;28;46929;-69
2022/02/06 09:49:55;;;;;;;;;2.25;1.00;;;;;;;;5054555;28;45489;-69
2022/02/06 09:52:25;;;;;;;;;3.00;1.00;;;;;;;;5055611;28;45565;-69
2022/02/06 09:54:50;;;;;;;;;2.00;1.75;;;;;;;;5057965;28;45355;-71
2022/02/06 09:57:25;;;;;;;;;2.00;2.00;;;;;;;;5057080;28;45617;-70
2022/02/06 09:59:51;;;;;;;;;2.00;2.00;;;;;;;;5057964;28;45243;-71
2022/02/06 10:02:17;;;;;;;;;1.00;1.00;;;;;;;;5058358;28;45397;-70
2022/02/06 10:04:44;;;;;;;;;1.50;1.00;;;;;;;;5065187;28;45586;-71
2022/02/06 10:07:11;;;;;;;;;2.00;1.00;;;;;;;;5058063;28;46153;-71
2022/02/06 10:09:36;;;;;;;;;1.00;1.00;;;;;;;;5052872;28;45351;-70
2022/02/06 10:12:01;;;;;;;;;1.00;1.00;;;;;;;;5058052;28;45605;-70
2022/02/06 10:14:28;;;;;;;;;1.00;1.00;;;;;;;;5057438;28;45405;-69
2022/02/06 10:16:53;;;;;;;;;1.00;1.00;;;;;;;;5057309;28;47172;-70
2022/02/06 10:19:19;;;;;;;;;1.25;1.25;;;;;;;;5057569;28;45367;-70
2022/02/06 10:21:46;;;;;;;;;2.00;1.00;;;;;;;;5057286;28;45395;-70
2022/02/06 10:24:19;;;;;;;;;0.25;0.25;;;;;;;;5058583;28;45415;-71
2022/02/06 10:31:55;;;;;;;;;2.50;0.00;;;;;;;;5057049;27;46057;-70
2022/02/06 10:34:24;;;;;;;;;0.75;0.75;;;;;;;;5057925;28;45540;-71
2022/02/06 10:36:50;;;;;;;;;1.00;1.00;;;;;;;;5038603;28;45564;-70
2022/02/06 10:39:17;;;;;;;;;1.00;1.00;;;;;;;;5056989;28;45384;-70
2022/02/06 10:41:47;;;;;;;;;1.00;1.00;;;;;;;;5057758;28;45345;-71
2022/02/06 10:44:14;;;;;;;;;2.00;0.75;;;;;;;;5065242;28;45590;-70
2022/02/06 10:46:47;;;;;;;;;2.25;1.75;;;;;;;;5076495;28;45410;-70
2022/02/06 10:49:13;;;;;;;;;0.50;0.50;;;;;;;;5042295;28;45609;-69
2022/02/06 10:51:39;;;;;;;;;1.50;0.50;;;;;;;;5071150;28;45349;-68
2022/02/06 10:54:08;;;;;;;;;0.00;0.00;;;;;;;;4748823;28;4383059;-71
2022/02/06 10:57:18;;;;;;;;;;;;;;;;;;1967212;28;25486209;-71
2022/02/06 11:01:54;;;;;;;;;3.00;3.00;;;;;;;;3;80650014;103368892;-70
2022/02/06 11:06:32;;;;;;;;;0.50;0.50;;;;;;;;5;6028514;105970546;-71
2022/02/06 11:08:57;;;;;;;;;2.50;1.00;;;;;;;;3692825;28;35276878;-70
2022/02/06 11:11:27;;;;;;;;;;;;;;;;;;2775104;28;29196200;-71
2022/02/06 11:14:03;;;;;;;;;1.00;1.00;;;;;;;;769381;28;63916497;-71
2022/02/06 11:16:29;;;;;;;;;1.00;1.00;;;;;;;;4779138;28;3256587;-73
2022/02/06 11:18:56;;;;;;;;;1.75;1.00;;;;;;;;5019565;28;352042;-70
2022/02/06 11:21:23;;;;;;;;;0.25;0.25;;;;;;;;5080662;28;28966;-71
2022/02/06 11:23:50;;;;;;;;;3.25;0.50;;;;;;;;5075710;28;35821;-71
2022/02/06 11:26:18;;;;;;;;;1.50;0.00;;;;;;;;5078270;28;30000;-71
2022/02/06 11:28:44;;;;;;;;;2.00;2.00;;;;;;;;2948899;28;36238150;-71
2022/02/06 11:31:10;;;;;;;;;0.50;0.50;;;;;;;;4106603;28;21385241;-71
2022/02/06 11:33:35;;;;;;;;;2.00;1.25;;;;;;;;5067386;28;100821;-72
2022/02/06 11:36:07;;;;;;;;;2.25;1.00;;;;;;;;5072131;28;32430;-71
2022/02/06 11:44:29;;;;;;;;;3.00;1.00;;;;;;;;4989005;28;28985;-69
2022/02/06 11:46:55;;;;;;;;;3.25;1.00;;;;;;;;4988461;28;33182;-70
2022/02/06 11:49:20;;;;;;;;;3.25;2.00;;;;;;;;4987964;28;46895;-70
2022/02/06 11:52:03;;;;;;;;;2.00;1.00;;;;;;;;4987580;28;29150;-70
2022/02/06 11:54:36;;;;;;;;;1.00;1.00;;;;;;;;4985594;28;29114;-71
2022/02/06 11:57:28;;;;;;;;;2.25;2.00;;;;;;;;4987906;28;29073;-70
2022/02/06 12:00:03;;;;;;;;;1.00;1.00;;;;;;;;4988036;28;35468;-70
2022/02/06 12:02:34;;;;;;;;;1.00;1.00;;;;;;;;4987927;28;29113;-71
2022/02/06 12:05:19;;;;;;;;;1.25;0.75;;;;;;;;4988867;28;29129;-71
2022/02/06 12:07:53;;;;;;;;;1.00;1.00;;;;;;;;4988725;28;28699;-72
2022/02/06 12:10:21;;;;;;;;;1.75;1.75;;;;;;;;4989901;28;28650;-71
2022/02/06 12:12:50;;;;;;;;;1.00;1.00;;;;;;;;4987648;28;28593;-73
2022/02/06 12:15:19;;;;;;;;;0.50;0.50;;;;;;;;4985983;28;40384;-71
2022/02/06 12:18:05;;;;;;;;;2.50;1.25;;;;;;;;4983978;28;39434;-71
2022/02/06 12:20:51;;;;;;;;;1.50;1.50;;;;;;;;5005120;28;28638;-70
2022/02/06 12:23:35;;;;;;;;;1.00;1.00;;;;;;;;5069218;28;28537;-70
2022/02/06 12:26:01;;;;;;;;;1.25;0.25;;;;;;;;5071537;27;28300;-70
2022/02/06 12:28:29;;;;;;;;;0.00;0.00;;;;;;;;5069751;28;28616;-72
2022/02/06 12:30:56;;;;;;;;;1.75;1.00;;;;;;;;5068382;28;28696;-71
2022/02/06 12:33:29;;;;;;;;;3.25;1.50;;;;;;;;5068032;28;28504;-68
2022/02/06 12:38:39;;;;;;;;;1.00;1.00;;;;;;;;5070148;28;40385;-70
2022/02/06 12:41:23;;;;;;;;;1.25;1.25;;;;;;;;5071603;28;28710;-72
2022/02/06 12:43:55;;;;;;;;;4.00;1.00;;;;;;;;5069679;28;28473;-70
2022/02/06 12:46:24;;;;;;;;;1.50;1.50;;;;;;;;5062403;28;28261;-73
2022/02/06 12:48:50;;;;;;;;;0.00;0.00;;;;;;;;5069881;28;28517;-70
2022/02/06 12:51:22;;;;;;;;;6.75;6.75;;;;;;;;5069646;28;28655;-71
2022/02/06 12:53:58;;;;;;;;;1.00;1.00;;;;;;;;5070439;28;28430;-71
2022/02/06 12:56:27;;;;;;;;;2.25;1.00;;;;;;;;5070911;28;28512;-70
2022/02/06 12:58:52;;;;;;;;;2.00;1.00;;;;;;;;5069914;28;28811;-69
2022/02/06 13:01:30;;;;;;;;;0.50;0.00;;;;;;;;5069350;28;28782;-72
2022/02/06 13:03:55;;;;;;;;;4.00;3.00;;;;;;;;5068343;28;28885;-70
2022/02/06 13:06:22;;;;;;;;;1.00;1.00;;;;;;;;5069158;28;29016;-71
2022/02/06 13:08:47;;;;;;;;;0.25;0.25;;;;;;;;5069184;28;28893;-71
2022/02/06 13:11:24;;;;;;;;;0.00;0.00;;;;;;;;5069721;28;28894;-70
2022/02/06 13:14:26;;;;;;;;;1.75;1.00;;;;;;;;5070030;28;29100;-70
2022/02/06 13:30:45;;;;;;;;;1.00;1.00;;;;;;;;5071125;28;28850;-70
2022/02/06 13:33:00;;;;;;;;;3.00;2.00;;;;;;;;5043859;28;28888;-69
2022/02/06 13:35:52;;;;;;;;;1.00;1.00;;;;;;;;5069331;28;28872;-70
2022/02/06 13:38:18;;;;;;;;;1.00;1.00;;;;;;;;5069776;28;29108;-71
2022/02/06 13:40:48;;;;;;;;;3.00;2.00;;;;;;;;5049056;28;30794;-69
2022/02/06 13:43:18;;;;;;;;;0.00;0.00;;;;;;;;5071823;27;29132;-70
2022/02/06 13:45:43;;;;;;;;;1.00;1.00;;;;;;;;5068989;28;28364;-71
2022/02/06 13:48:09;;;;;;;;;2.75;2.00;;;;;;;;5067058;28;28557;-70
2022/02/06 13:50:40;;;;;;;;;3.00;1.00;;;;;;;;5068698;28;28407;-70
2022/02/06 13:53:06;;;;;;;;;0.50;0.50;;;;;;;;5068749;28;28518;-69
2022/02/06 13:55:31;;;;;;;;;1.00;1.00;;;;;;;;5069166;28;28489;-70
2022/02/06 13:57:57;;;;;;;;;3.50;1.50;;;;;;;;5068022;28;28343;-70
2022/02/06 14:00:22;;;;;;;;;1.00;1.00;;;;;;;;5068483;28;28361;-71
2022/02/06 14:02:51;;;;;;;;;0.00;0.00;;;;;;;;5068975;28;28553;-79
2022/02/06 14:05:17;;;;;;;;;1.50;0.50;;;;;;;;5068145;28;28640;-75
2022/02/06 14:07:42;;;;;;;;;1.50;0.75;;;;;;;;5068939;28;30394;-78
2022/02/06 14:10:11;;;;;;;;;1.00;1.00;;;;;;;;5051779;28;28539;-79
2022/02/06 14:12:46;;;;;;;;;0.75;0.75;;;;;;;;5051473;28;29205;-78
2022/02/06 14:15:19;;;;;;;;;1.00;1.00;;;;;;;;5069669;28;28647;-80
2022/02/06 14:17:49;;;;;;;;;1.00;1.00;;;;;;;;5067740;28;28347;-80
2022/02/06 14:20:18;;;;;;;;;0.50;0.50;;;;;;;;5069388;28;30010;-76
2022/02/06 14:22:45;;;;;;;;;0.25;0.25;;;;;;;;5069523;28;28421;-74
2022/02/06 14:25:12;;;;;;;;;3.00;0.75;;;;;;;;5067804;28;28912;-77
2022/02/06 14:27:40;;;;;;;;;0.00;0.00;;;;;;;;5066119;28;28390;-76
2022/02/06 14:30:06;;;;;;;;;1.50;1.50;;;;;;;;5067712;28;29127;-74
2022/02/06 14:32:31;;;;;;;;;0.75;0.75;;;;;;;;5068953;28;28410;-77
2022/02/06 14:34:56;;;;;;;;;0.50;0.00;;;;;;;;5069363;28;28316;-79
2022/02/06 14:37:24;;;;;;;;;0.00;0.00;;;;;;;;5070506;28;30155;-77
2022/02/06 14:39:59;;;;;;;;;1.50;0.00;;;;;;;;5071905;28;28869;-77
2022/02/06 14:42:27;;;;;;;;;1.00;1.00;;;;;;;;5071861;28;30326;-76
2022/02/06 14:44:52;;;;;;;;;0.25;0.25;;;;;;;;5072009;28;28578;-76
2022/02/06 14:47:17;;;;;;;;;0.25;0.00;;;;;;;;5072387;28;28389;-74
2022/02/06 14:49:42;;;;;;;;;0.00;0.00;;;;;;;;5073518;28;28396;-75
2022/02/06 14:52:08;;;;;;;;;0.00;0.00;;;;;;;;5074326;28;28609;-77
2022/02/06 14:54:38;;;;;;;;;0.50;0.50;;;;;;;;5058989;28;28553;-78
2022/02/06 14:57:03;;;;;;;;;0.00;0.00;;;;;;;;5075351;28;28476;-77
2022/02/06 14:59:28;;;;;;;;;1.25;1.00;;;;;;;;5071679;28;28601;-79
2022/02/06 15:01:54;;;;;;;;;0.00;0.00;;;;;;;;5073700;28;28665;-78
2022/02/06 15:04:21;;;;;;;;;0.50;0.50;;;;;;;;5072906;28;28414;-76
2022/02/06 15:06:47;;;;;;;;;1.00;1.00;;;;;;;;5070510;28;28049;-78
2022/02/06 15:09:12;;;;;;;;;0.00;0.00;;;;;;;;5069881;28;28619;-75
2022/02/06 15:11:37;;;;;;;;;0.75;0.75;;;;;;;;5071231;28;28849;-75
2022/02/06 15:14:03;;;;;;;;;0.00;0.00;;;;;;;;5074632;28;28594;-74
2022/02/06 15:16:31;;;;;;;;;0.25;0.25;;;;;;;;5072491;28;28417;-75
2022/02/06 15:19:13;;;;;;;;;0.00;0.00;;;;;;;;5072068;28;29472;-75
2022/02/06 15:21:39;;;;;;;;;0.00;0.00;;;;;;;;5066886;28;28514;-75
2022/02/06 15:24:04;;;;;;;;;1.00;1.00;;;;;;;;5072793;28;28470;-75
2022/02/06 15:26:29;;;;;;;;;2.00;1.00;;;;;;;;5066809;28;28530;-73
2022/02/06 15:28:55;;;;;;;;;1.00;0.00;;;;;;;;5072832;28;29232;-77
2022/02/06 15:31:20;;;;;;;;;1.00;0.00;;;;;;;;5071438;28;28535;-76
2022/02/06 15:33:45;;;;;;;;;1.25;0.00;;;;;;;;5071419;28;28382;-75
2022/02/06 15:36:11;;;;;;;;;0.00;0.00;;;;;;;;5072308;28;28269;-75
2022/02/06 15:38:37;;;;;;;;;0.25;0.25;;;;;;;;5071253;28;28457;-76
2022/02/06 15:41:03;;;;;;;;;0.50;0.50;;;;;;;;5078902;28;28861;-77
2022/02/06 15:43:28;;;;;;;;;1.00;1.00;;;;;;;;5072384;28;28553;-74
2022/02/06 15:45:54;;;;;;;;;2.00;2.00;;;;;;;;5072121;28;28403;-73
2022/02/06 15:48:19;;;;;;;;;1.00;0.75;;;;;;;;5068448;28;29987;-76
2022/02/06 15:50:44;;;;;;;;;2.25;1.00;;;;;;;;5064889;28;29942;-76
2022/02/06 15:53:09;;;;;;;;;1.00;1.00;;;;;;;;5073090;28;28541;-76
2022/02/06 15:55:35;;;;;;;;;2.25;1.00;;;;;;;;5072888;28;28481;-76
2022/02/06 15:58:00;;;;;;;;;1.25;1.25;;;;;;;;5072425;28;29168;-77
2022/02/06 16:00:25;;;;;;;;;2.00;0.25;;;;;;;;5071418;28;28497;-77
2022/02/06 16:02:50;;;;;;;;;1.00;1.00;;;;;;;;5054218;28;28628;-77
2022/02/06 16:05:16;;;;;;;;;0.00;0.00;;;;;;;;5071109;28;28426;-74
2022/02/06 16:07:42;;;;;;;;;0.25;0.25;;;;;;;;5070787;28;28527;-76
2022/02/06 16:10:08;;;;;;;;;2.75;2.75;;;;;;;;5072098;28;28432;-76
2022/02/06 16:12:33;;;;;;;;;2.75;0.75;;;;;;;;5071437;28;28303;-73
2022/02/06 16:14:58;;;;;;;;;2.25;1.00;;;;;;;;5068914;27;28576;-72
2022/02/06 16:17:23;;;;;;;;;1.00;1.00;;;;;;;;5052508;28;28437;-74
2022/02/06 16:19:49;;;;;;;;;2.75;1.00;;;;;;;;5070582;28;28608;-74
2022/02/06 16:22:14;;;;;;;;;1.00;1.00;;;;;;;;5071308;28;28368;-73
2022/02/06 16:24:43;;;;;;;;;1.00;1.00;;;;;;;;5051932;28;28370;-74
2022/02/06 16:27:09;;;;;;;;;4.00;0.75;;;;;;;;5070431;28;28424;-75
2022/02/06 16:29:35;;;;;;;;;2.50;2.50;;;;;;;;5070403;28;28442;-73
2022/02/06 16:32:00;;;;;;;;;1.25;1.25;;;;;;;;5071062;27;28498;-73
2022/02/06 16:34:26;;;;;;;;;1.50;1.50;;;;;;;;5070591;28;28396;-74
2022/02/06 16:36:51;;;;;;;;;2.50;2.00;;;;;;;;5070246;28;28502;-73
2022/02/06 16:39:18;;;;;;;;;3.00;2.00;;;;;;;;5070452;28;28465;-73
2022/02/06 16:41:43;;;;;;;;;1.50;0.25;;;;;;;;5070958;28;28489;-75
2022/02/06 16:44:08;;;;;;;;;1.25;1.00;;;;;;;;5070800;28;28412;-77
2022/02/06 16:46:33;;;;;;;;;2.50;1.00;;;;;;;;5070602;28;29452;-75
2022/02/06 16:48:59;;;;;;;;;5.00;1.00;;;;;;;;5069763;28;28425;-75
2022/02/06 16:51:24;;;;;;;;;3.00;1.75;;;;;;;;5070016;28;28525;-76
2022/02/06 16:53:49;;;;;;;;;3.00;3.00;;;;;;;;5071681;28;28463;-78
2022/02/06 16:56:15;;;;;;;;;2.50;1.00;;;;;;;;5070325;28;28537;-77
2022/02/06 16:58:41;;;;;;;;;1.75;0.75;;;;;;;;5070356;28;28419;-74
2022/02/06 17:01:06;;;;;;;;;1.00;1.00;;;;;;;;5072018;28;28378;-78
2022/02/06 17:03:31;;;;;;;;;1.00;1.00;;;;;;;;5069678;28;28815;-75
2022/02/06 17:05:57;;;;;;;;;1.75;1.00;;;;;;;;5070500;28;29528;-77
2022/02/06 17:08:22;;;;;;;;;1.00;1.00;;;;;;;;5070040;28;28568;-76
2022/02/06 17:10:47;;;;;;;;;3.00;1.00;;;;;;;;5071171;28;28402;-73
2022/02/06 17:13:14;;;;;;;;;1.00;1.00;;;;;;;;5071497;28;28273;-71
2022/02/06 17:15:41;;;;;;;;;1.00;1.00;;;;;;;;5070320;28;28276;-73
2022/02/06 17:18:06;;;;;;;;;3.75;1.50;;;;;;;;5071848;27;28415;-74
2022/02/06 17:20:31;;;;;;;;;2.50;1.25;;;;;;;;5073243;27;28450;-74
2022/02/06 17:22:57;;;;;;;;;0.25;0.25;;;;;;;;5053007;28;28536;-74
2022/02/06 17:25:22;;;;;;;;;1.00;1.00;;;;;;;;5071275;28;28473;-74
2022/02/06 17:27:47;;;;;;;;;2.00;2.00;;;;;;;;5070168;28;28885;-77